sensor_id;sensor_type;location;lat;lon;timestamp;P1;durP1;ratioP1;P2;durP2;ratioP2
18286;SDS011;9269;50.838;12.094;2023-01-28T00:00:04;8.13;;;6.67;;
18286;SDS011;9269;50.838;12.094;2023-01-28T00:02:36;6.77;;;5.60;;
18286;SDS011;9269;50.838;12.094;2023-01-28T00:05:05;5.10;;;4.23;;
18286;SDS011;9269;50.838;12.094;2023-01-28T00:07:34;7.70;;;6.20;;
18286;SDS011;9269;50.838;12.094;2023-01-28T00:10:02;6.20;;;5.60;;
18286;SDS011;9269;50.838;12.094;2023-01-28T00:12:31;6.27;;;5.67;;
18286;SDS011;9269;50.838;12.094;2023-01-28T00:15:00;6.17;;;5.57;;
18286;SDS011;9269;50.838;12.094;2023-01-28T00:17:28;6.80;;;6.10;;
18286;SDS011;9269;50.838;12.094;2023-01-28T00:19:58;6.60;;;5.90;;
18286;SDS011;9269;50.838;12.094;2023-01-28T00:22:26;8.30;;;6.37;;
18286;SDS011;9269;50.838;12.094;2023-01-28T00:24:55;8.23;;;6.87;;
18286;SDS011;9269;50.838;12.094;2023-01-28T00:27:23;7.30;;;6.43;;
18286;SDS011;9269;50.838;12.094;2023-01-28T00:29:52;8.17;;;6.57;;
18286;SDS011;9269;50.838;12.094;2023-01-28T00:32:21;7.37;;;6.57;;
18286;SDS011;9269;50.838;12.094;2023-01-28T00:34:49;9.57;;;7.30;;
18286;SDS011;9269;50.838;12.094;2023-01-28T00:37:19;8.30;;;7.23;;
18286;SDS011;9269;50.838;12.094;2023-01-28T00:39:49;8.27;;;6.83;;
18286;SDS011;9269;50.838;12.094;2023-01-28T00:42:17;9.00;;;7.07;;
18286;SDS011;9269;50.838;12.094;2023-01-28T00:44:46;9.57;;;7.50;;
18286;SDS011;9269;50.838;12.094;2023-01-28T00:47:34;9.60;;;7.30;;
18286;SDS011;9269;50.838;12.094;2023-01-28T00:50:02;9.00;;;7.03;;
18286;SDS011;9269;50.838;12.094;2023-01-28T00:52:33;9.13;;;6.10;;
18286;SDS011;9269;50.838;12.094;2023-01-28T00:55:02;10.57;;;7.40;;
18286;SDS011;9269;50.838;12.094;2023-01-28T00:57:30;10.77;;;8.20;;
18286;SDS011;9269;50.838;12.094;2023-01-28T00:59:59;10.97;;;8.20;;
18286;SDS011;9269;50.838;12.094;2023-01-28T01:02:27;10.67;;;7.93;;
18286;SDS011;9269;50.838;12.094;2023-01-28T01:04:56;9.93;;;8.17;;
18286;SDS011;9269;50.838;12.094;2023-01-28T01:07:31;12.43;;;9.23;;
18286;SDS011;9269;50.838;12.094;2023-01-28T01:10:09;11.83;;;9.87;;
18286;SDS011;9269;50.838;12.094;2023-01-28T01:12:39;11.10;;;9.37;;
18286;SDS011;9269;50.838;12.094;2023-01-28T01:15:08;13.50;;;9.43;;
18286;SDS011;9269;50.838;12.094;2023-01-28T01:17:41;13.60;;;9.77;;
18286;SDS011;9269;50.838;12.094;2023-01-28T01:20:14;12.90;;;9.37;;
18286;SDS011;9269;50.838;12.094;2023-01-28T01:22:44;12.33;;;9.03;;
18286;SDS011;9269;50.838;12.094;2023-01-28T01:25:14;11.93;;;9.83;;
18286;SDS011;9269;50.838;12.094;2023-01-28T01:27:44;10.87;;;9.00;;
18286;SDS011;9269;50.838;12.094;2023-01-28T01:30:15;10.73;;;8.60;;
18286;SDS011;9269;50.838;12.094;2023-01-28T01:32:43;11.13;;;9.47;;
18286;SDS011;9269;50.838;12.094;2023-01-28T01:35:12;14.03;;;9.60;;
18286;SDS011;9269;50.838;12.094;2023-01-28T01:37:42;12.13;;;9.20;;
18286;SDS011;9269;50.838;12.094;2023-01-28T01:40:12;10.77;;;8.37;;
18286;SDS011;9269;50.838;12.094;2023-01-28T01:42:41;11.17;;;8.50;;
18286;SDS011;9269;50.838;12.094;2023-01-28T01:45:11;12.30;;;8.70;;
18286;SDS011;9269;50.838;12.094;2023-01-28T01:47:43;12.90;;;9.17;;
18286;SDS011;9269;50.838;12.094;2023-01-28T01:50:19;10.20;;;8.90;;
18286;SDS011;9269;50.838;12.094;2023-01-28T01:52:54;13.70;;;9.27;;
18286;SDS011;9269;50.838;12.094;2023-01-28T01:55:26;12.17;;;9.57;;
18286;SDS011;9269;50.838;12.094;2023-01-28T01:58:01;13.50;;;8.57;;
18286;SDS011;9269;50.838;12.094;2023-01-28T02:00:33;11.60;;;8.83;;
18286;SDS011;9269;50.838;12.094;2023-01-28T02:03:02;13.20;;;9.17;;
18286;SDS011;9269;50.838;12.094;2023-01-28T02:05:31;10.43;;;8.40;;
18286;SDS011;9269;50.838;12.094;2023-01-28T02:08:00;9.80;;;8.80;;
18286;SDS011;9269;50.838;12.094;2023-01-28T02:10:52;11.17;;;8.83;;
18286;SDS011;9269;50.838;12.094;2023-01-28T02:13:24;12.60;;;8.33;;
18286;SDS011;9269;50.838;12.094;2023-01-28T02:15:55;10.33;;;8.73;;
18286;SDS011;9269;50.838;12.094;2023-01-28T02:18:25;12.33;;;9.10;;
18286;SDS011;9269;50.838;12.094;2023-01-28T02:21:02;12.93;;;8.73;;
18286;SDS011;9269;50.838;12.094;2023-01-28T02:23:59;10.83;;;8.73;;
18286;SDS011;9269;50.838;12.094;2023-01-28T02:27:05;11.97;;;8.70;;
18286;SDS011;9269;50.838;12.094;2023-01-28T02:29:50;11.27;;;9.33;;
18286;SDS011;9269;50.838;12.094;2023-01-28T02:32:24;12.53;;;8.80;;
18286;SDS011;9269;50.838;12.094;2023-01-28T02:35:00;12.33;;;8.57;;
18286;SDS011;9269;50.838;12.094;2023-01-28T02:37:35;10.90;;;8.37;;
18286;SDS011;9269;50.838;12.094;2023-01-28T02:40:08;13.03;;;9.37;;
18286;SDS011;9269;50.838;12.094;2023-01-28T02:42:39;11.70;;;8.63;;
18286;SDS011;9269;50.838;12.094;2023-01-28T02:45:13;11.00;;;8.60;;
18286;SDS011;9269;50.838;12.094;2023-01-28T02:47:45;11.60;;;8.50;;
18286;SDS011;9269;50.838;12.094;2023-01-28T02:50:27;11.93;;;9.27;;
18286;SDS011;9269;50.838;12.094;2023-01-28T02:53:07;10.70;;;8.70;;
18286;SDS011;9269;50.838;12.094;2023-01-28T02:56:18;8.97;;;7.83;;
18286;SDS011;9269;50.838;12.094;2023-01-28T02:58:57;11.90;;;8.33;;
18286;SDS011;9269;50.838;12.094;2023-01-28T03:01:52;9.97;;;7.83;;
18286;SDS011;9269;50.838;12.094;2023-01-28T03:04:27;10.27;;;8.20;;
18286;SDS011;9269;50.838;12.094;2023-01-28T03:06:59;12.47;;;8.37;;
18286;SDS011;9269;50.838;12.094;2023-01-28T03:09:32;12.13;;;8.53;;
18286;SDS011;9269;50.838;12.094;2023-01-28T03:12:03;9.73;;;8.10;;
18286;SDS011;9269;50.838;12.094;2023-01-28T03:14:53;9.50;;;7.50;;
18286;SDS011;9269;50.838;12.094;2023-01-28T03:17:45;9.37;;;7.63;;
18286;SDS011;9269;50.838;12.094;2023-01-28T03:20:34;10.80;;;7.57;;
18286;SDS011;9269;50.838;12.094;2023-01-28T03:23:26;8.00;;;7.20;;
18286;SDS011;9269;50.838;12.094;2023-01-28T03:26:22;9.53;;;7.17;;
18286;SDS011;9269;50.838;12.094;2023-01-28T03:29:12;10.70;;;7.43;;
18286;SDS011;9269;50.838;12.094;2023-01-28T03:31:59;10.97;;;7.53;;
18286;SDS011;9269;50.838;12.094;2023-01-28T03:34:48;9.03;;;6.90;;
18286;SDS011;9269;50.838;12.094;2023-01-28T03:37:33;8.20;;;6.87;;
18286;SDS011;9269;50.838;12.094;2023-01-28T03:40:03;8.10;;;7.00;;
18286;SDS011;9269;50.838;12.094;2023-01-28T03:42:32;8.30;;;7.50;;
18286;SDS011;9269;50.838;12.094;2023-01-28T03:45:02;7.40;;;6.53;;
18286;SDS011;9269;50.838;12.094;2023-01-28T03:47:32;10.90;;;6.87;;
18286;SDS011;9269;50.838;12.094;2023-01-28T03:50:02;9.37;;;6.77;;
18286;SDS011;9269;50.838;12.094;2023-01-28T03:52:33;8.33;;;7.00;;
18286;SDS011;9269;50.838;12.094;2023-01-28T03:55:01;12.30;;;7.30;;
18286;SDS011;9269;50.838;12.094;2023-01-28T03:57:39;9.07;;;7.30;;
18286;SDS011;9269;50.838;12.094;2023-01-28T04:00:11;9.13;;;6.43;;
18286;SDS011;9269;50.838;12.094;2023-01-28T04:02:43;9.47;;;7.33;;
18286;SDS011;9269;50.838;12.094;2023-01-28T04:05:13;7.53;;;6.70;;
18286;SDS011;9269;50.838;12.094;2023-01-28T04:07:45;7.10;;;6.40;;
18286;SDS011;9269;50.838;12.094;2023-01-28T04:10:14;7.83;;;6.57;;
18286;SDS011;9269;50.838;12.094;2023-01-28T04:12:42;7.90;;;6.67;;
18286;SDS011;9269;50.838;12.094;2023-01-28T04:15:11;8.03;;;6.40;;
18286;SDS011;9269;50.838;12.094;2023-01-28T04:17:43;7.10;;;6.40;;
18286;SDS011;9269;50.838;12.094;2023-01-28T04:20:14;7.13;;;6.10;;
18286;SDS011;9269;50.838;12.094;2023-01-28T04:22:43;6.73;;;6.03;;
18286;SDS011;9269;50.838;12.094;2023-01-28T04:25:14;7.50;;;6.60;;
18286;SDS011;9269;50.838;12.094;2023-01-28T04:27:43;9.00;;;6.20;;
18286;SDS011;9269;50.838;12.094;2023-01-28T04:30:12;8.93;;;6.20;;
18286;SDS011;9269;50.838;12.094;2023-01-28T04:32:41;8.53;;;6.10;;
18286;SDS011;9269;50.838;12.094;2023-01-28T04:35:09;6.90;;;5.87;;
18286;SDS011;9269;50.838;12.094;2023-01-28T04:37:42;7.20;;;6.23;;
18286;SDS011;9269;50.838;12.094;2023-01-28T04:40:11;6.97;;;5.90;;
18286;SDS011;9269;50.838;12.094;2023-01-28T04:42:40;7.30;;;5.57;;
18286;SDS011;9269;50.838;12.094;2023-01-28T04:45:09;8.10;;;5.67;;
18286;SDS011;9269;50.838;12.094;2023-01-28T04:47:38;6.57;;;5.60;;
18286;SDS011;9269;50.838;12.094;2023-01-28T04:50:08;6.13;;;5.63;;
18286;SDS011;9269;50.838;12.094;2023-01-28T04:52:37;8.10;;;5.97;;
18286;SDS011;9269;50.838;12.094;2023-01-28T04:55:07;6.10;;;5.30;;
18286;SDS011;9269;50.838;12.094;2023-01-28T04:57:37;6.17;;;5.57;;
18286;SDS011;9269;50.838;12.094;2023-01-28T05:00:06;6.73;;;5.37;;
18286;SDS011;9269;50.838;12.094;2023-01-28T05:02:36;6.43;;;5.07;;
18286;SDS011;9269;50.838;12.094;2023-01-28T05:05:05;6.10;;;5.50;;
18286;SDS011;9269;50.838;12.094;2023-01-28T05:07:35;6.83;;;5.33;;
18286;SDS011;9269;50.838;12.094;2023-01-28T05:10:04;8.63;;;5.77;;
18286;SDS011;9269;50.838;12.094;2023-01-28T05:15:55;5.90;;;4.90;;
18286;SDS011;9269;50.838;12.094;2023-01-28T05:18:23;6.77;;;5.07;;
18286;SDS011;9269;50.838;12.094;2023-01-28T05:20:52;6.30;;;4.87;;
18286;SDS011;9269;50.838;12.094;2023-01-28T05:23:22;7.23;;;4.57;;
18286;SDS011;9269;50.838;12.094;2023-01-28T05:25:52;5.67;;;4.70;;
18286;SDS011;9269;50.838;12.094;2023-01-28T05:28:20;5.03;;;4.43;;
18286;SDS011;9269;50.838;12.094;2023-01-28T05:30:49;7.93;;;5.00;;
18286;SDS011;9269;50.838;12.094;2023-01-28T05:33:19;5.40;;;4.47;;
18286;SDS011;9269;50.838;12.094;2023-01-28T05:35:48;6.20;;;4.87;;
18286;SDS011;9269;50.838;12.094;2023-01-28T05:38:16;7.83;;;5.10;;
18286;SDS011;9269;50.838;12.094;2023-01-28T05:40:45;7.90;;;5.13;;
18286;SDS011;9269;50.838;12.094;2023-01-28T05:43:16;6.27;;;4.40;;
18286;SDS011;9269;50.838;12.094;2023-01-28T05:45:45;7.30;;;4.80;;
18286;SDS011;9269;50.838;12.094;2023-01-28T05:48:14;7.67;;;5.40;;
18286;SDS011;9269;50.838;12.094;2023-01-28T05:50:42;6.67;;;5.57;;
18286;SDS011;9269;50.838;12.094;2023-01-28T05:53:13;6.47;;;5.00;;
18286;SDS011;9269;50.838;12.094;2023-01-28T05:55:41;5.53;;;4.20;;
18286;SDS011;9269;50.838;12.094;2023-01-28T05:58:10;4.87;;;4.30;;
18286;SDS011;9269;50.838;12.094;2023-01-28T06:00:40;7.60;;;4.07;;
18286;SDS011;9269;50.838;12.094;2023-01-28T06:03:09;4.87;;;4.37;;
18286;SDS011;9269;50.838;12.094;2023-01-28T06:05:38;6.03;;;4.33;;
18286;SDS011;9269;50.838;12.094;2023-01-28T06:08:07;4.97;;;3.80;;
18286;SDS011;9269;50.838;12.094;2023-01-28T06:10:36;5.07;;;4.00;;
18286;SDS011;9269;50.838;12.094;2023-01-28T06:13:06;5.50;;;3.83;;
18286;SDS011;9269;50.838;12.094;2023-01-28T06:15:35;4.70;;;3.50;;
18286;SDS011;9269;50.838;12.094;2023-01-28T06:18:05;4.20;;;3.60;;
18286;SDS011;9269;50.838;12.094;2023-01-28T06:20:34;4.97;;;3.97;;
18286;SDS011;9269;50.838;12.094;2023-01-28T06:23:03;4.10;;;3.50;;
18286;SDS011;9269;50.838;12.094;2023-01-28T06:25:31;5.13;;;3.50;;
18286;SDS011;9269;50.838;12.094;2023-01-28T06:28:00;4.57;;;3.50;;
18286;SDS011;9269;50.838;12.094;2023-01-28T06:30:29;3.77;;;3.40;;
18286;SDS011;9269;50.838;12.094;2023-01-28T06:32:58;3.90;;;3.50;;
18286;SDS011;9269;50.838;12.094;2023-01-28T06:35:29;4.00;;;3.60;;
18286;SDS011;9269;50.838;12.094;2023-01-28T06:37:58;5.03;;;3.43;;
18286;SDS011;9269;50.838;12.094;2023-01-28T06:40:26;4.20;;;3.80;;
18286;SDS011;9269;50.838;12.094;2023-01-28T06:42:56;4.03;;;3.60;;
18286;SDS011;9269;50.838;12.094;2023-01-28T06:45:24;4.43;;;3.43;;
18286;SDS011;9269;50.838;12.094;2023-01-28T06:47:53;3.90;;;3.60;;
18286;SDS011;9269;50.838;12.094;2023-01-28T06:50:22;3.57;;;3.00;;
18286;SDS011;9269;50.838;12.094;2023-01-28T06:52:52;4.03;;;3.37;;
18286;SDS011;9269;50.838;12.094;2023-01-28T06:55:21;5.90;;;3.30;;
18286;SDS011;9269;50.838;12.094;2023-01-28T06:57:50;5.60;;;3.17;;
18286;SDS011;9269;50.838;12.094;2023-01-28T07:00:19;5.13;;;3.33;;
18286;SDS011;9269;50.838;12.094;2023-01-28T07:02:48;4.03;;;3.60;;
18286;SDS011;9269;50.838;12.094;2023-01-28T07:05:19;5.30;;;3.53;;
18286;SDS011;9269;50.838;12.094;2023-01-28T07:07:48;3.97;;;3.20;;
18286;SDS011;9269;50.838;12.094;2023-01-28T07:10:18;3.73;;;2.60;;
18286;SDS011;9269;50.838;12.094;2023-01-28T07:12:48;4.17;;;3.17;;
18286;SDS011;9269;50.838;12.094;2023-01-28T07:15:17;3.60;;;3.30;;
18286;SDS011;9269;50.838;12.094;2023-01-28T07:17:46;4.03;;;3.30;;
18286;SDS011;9269;50.838;12.094;2023-01-28T07:20:14;4.37;;;3.97;;
18286;SDS011;9269;50.838;12.094;2023-01-28T07:22:44;5.23;;;3.37;;
18286;SDS011;9269;50.838;12.094;2023-01-28T07:25:13;6.77;;;3.47;;
18286;SDS011;9269;50.838;12.094;2023-01-28T07:27:47;4.20;;;3.10;;
18286;SDS011;9269;50.838;12.094;2023-01-28T07:30:17;4.17;;;3.20;;
18286;SDS011;9269;50.838;12.094;2023-01-28T07:32:51;4.43;;;3.30;;
18286;SDS011;9269;50.838;12.094;2023-01-28T07:35:20;5.00;;;4.00;;
18286;SDS011;9269;50.838;12.094;2023-01-28T07:37:50;4.80;;;3.43;;
18286;SDS011;9269;50.838;12.094;2023-01-28T07:40:19;5.53;;;3.20;;
18286;SDS011;9269;50.838;12.094;2023-01-28T07:42:49;5.97;;;3.13;;
18286;SDS011;9269;50.838;12.094;2023-01-28T07:45:18;6.00;;;2.97;;
18286;SDS011;9269;50.838;12.094;2023-01-28T07:47:52;4.73;;;3.57;;
18286;SDS011;9269;50.838;12.094;2023-01-28T07:50:22;4.97;;;3.53;;
18286;SDS011;9269;50.838;12.094;2023-01-28T08:04:53;6.53;;;3.73;;
18286;SDS011;9269;50.838;12.094;2023-01-28T08:07:26;4.63;;;2.90;;
18286;SDS011;9269;50.838;12.094;2023-01-28T08:09:55;5.53;;;3.10;;
18286;SDS011;9269;50.838;12.094;2023-01-28T08:12:24;3.90;;;3.10;;
18286;SDS011;9269;50.838;12.094;2023-01-28T08:14:53;5.53;;;3.60;;
18286;SDS011;9269;50.838;12.094;2023-01-28T08:17:23;3.67;;;3.00;;
18286;SDS011;9269;50.838;12.094;2023-01-28T08:19:53;8.67;;;4.73;;
18286;SDS011;9269;50.838;12.094;2023-01-28T08:22:23;3.40;;;3.10;;
18286;SDS011;9269;50.838;12.094;2023-01-28T08:24:52;3.23;;;2.93;;
18286;SDS011;9269;50.838;12.094;2023-01-28T08:27:21;9.47;;;4.90;;
18286;SDS011;9269;50.838;12.094;2023-01-28T08:29:51;5.93;;;4.20;;
18286;SDS011;9269;50.838;12.094;2023-01-28T08:32:21;5.13;;;3.73;;
18286;SDS011;9269;50.838;12.094;2023-01-28T08:34:50;5.13;;;4.00;;
18286;SDS011;9269;50.838;12.094;2023-01-28T08:37:20;8.37;;;3.40;;
18286;SDS011;9269;50.838;12.094;2023-01-28T08:39:48;4.63;;;3.00;;
18286;SDS011;9269;50.838;12.094;2023-01-28T08:42:18;3.27;;;2.70;;
18286;SDS011;9269;50.838;12.094;2023-01-28T08:44:47;5.23;;;3.43;;
18286;SDS011;9269;50.838;12.094;2023-01-28T08:47:16;5.67;;;3.10;;
18286;SDS011;9269;50.838;12.094;2023-01-28T08:49:44;3.57;;;3.27;;
18286;SDS011;9269;50.838;12.094;2023-01-28T08:52:14;6.53;;;3.80;;
18286;SDS011;9269;50.838;12.094;2023-01-28T08:54:47;4.67;;;4.10;;
18286;SDS011;9269;50.838;12.094;2023-01-28T08:57:16;4.20;;;3.50;;
18286;SDS011;9269;50.838;12.094;2023-01-28T08:59:44;3.57;;;3.10;;
18286;SDS011;9269;50.838;12.094;2023-01-28T09:02:14;2.87;;;2.57;;
18286;SDS011;9269;50.838;12.094;2023-01-28T09:04:57;2.43;;;2.20;;
18286;SDS011;9269;50.838;12.094;2023-01-28T09:07:26;3.80;;;2.20;;
18286;SDS011;9269;50.838;12.094;2023-01-28T09:09:56;3.70;;;2.43;;
18286;SDS011;9269;50.838;12.094;2023-01-28T09:12:25;3.97;;;2.63;;
18286;SDS011;9269;50.838;12.094;2023-01-28T09:14:54;3.03;;;2.40;;
18286;SDS011;9269;50.838;12.094;2023-01-28T09:17:23;3.83;;;2.70;;
18286;SDS011;9269;50.838;12.094;2023-01-28T09:19:54;3.97;;;2.67;;
18286;SDS011;9269;50.838;12.094;2023-01-28T09:22:23;3.77;;;2.93;;
18286;SDS011;9269;50.838;12.094;2023-01-28T09:24:51;3.77;;;2.93;;
18286;SDS011;9269;50.838;12.094;2023-01-28T09:27:21;5.27;;;3.63;;
18286;SDS011;9269;50.838;12.094;2023-01-28T09:29:50;6.13;;;4.37;;
18286;SDS011;9269;50.838;12.094;2023-01-28T09:32:22;6.40;;;3.83;;
18286;SDS011;9269;50.838;12.094;2023-01-28T09:34:51;5.57;;;3.87;;
18286;SDS011;9269;50.838;12.094;2023-01-28T09:37:19;4.73;;;4.03;;
18286;SDS011;9269;50.838;12.094;2023-01-28T09:39:48;5.07;;;3.70;;
18286;SDS011;9269;50.838;12.094;2023-01-28T09:42:25;4.73;;;3.63;;
18286;SDS011;9269;50.838;12.094;2023-01-28T09:45:10;4.67;;;3.70;;
18286;SDS011;9269;50.838;12.094;2023-01-28T09:47:45;4.37;;;3.40;;
18286;SDS011;9269;50.838;12.094;2023-01-28T09:50:19;6.07;;;3.93;;
18286;SDS011;9269;50.838;12.094;2023-01-28T09:52:53;7.27;;;4.07;;
18286;SDS011;9269;50.838;12.094;2023-01-28T09:55:29;4.43;;;4.10;;
18286;SDS011;9269;50.838;12.094;2023-01-28T09:58:03;6.63;;;3.83;;
18286;SDS011;9269;50.838;12.094;2023-01-28T10:00:41;5.40;;;3.97;;
18286;SDS011;9269;50.838;12.094;2023-01-28T10:03:21;4.73;;;3.60;;
18286;SDS011;9269;50.838;12.094;2023-01-28T10:14:37;4.30;;;3.90;;
18286;SDS011;9269;50.838;12.094;2023-01-28T10:17:15;4.83;;;4.33;;
18286;SDS011;9269;50.838;12.094;2023-01-28T10:19:50;5.77;;;4.23;;
18286;SDS011;9269;50.838;12.094;2023-01-28T10:22:26;5.77;;;3.90;;
18286;SDS011;9269;50.838;12.094;2023-01-28T10:25:01;6.30;;;4.07;;
18286;SDS011;9269;50.838;12.094;2023-01-28T10:27:33;6.47;;;4.40;;
18286;SDS011;9269;50.838;12.094;2023-01-28T10:30:15;4.37;;;3.80;;
18286;SDS011;9269;50.838;12.094;2023-01-28T10:32:49;4.47;;;4.03;;
18286;SDS011;9269;50.838;12.094;2023-01-28T10:35:20;5.10;;;3.90;;
18286;SDS011;9269;50.838;12.094;2023-01-28T10:37:50;6.10;;;3.77;;
18286;SDS011;9269;50.838;12.094;2023-01-28T10:40:24;4.40;;;3.97;;
18286;SDS011;9269;50.838;12.094;2023-01-28T10:42:53;7.10;;;3.90;;
18286;SDS011;9269;50.838;12.094;2023-01-28T10:45:24;5.33;;;4.50;;
18286;SDS011;9269;50.838;12.094;2023-01-28T10:47:58;5.27;;;3.80;;
18286;SDS011;9269;50.838;12.094;2023-01-28T10:50:30;5.10;;;4.13;;
18286;SDS011;9269;50.838;12.094;2023-01-28T10:53:01;5.10;;;4.43;;
18286;SDS011;9269;50.838;12.094;2023-01-28T10:55:33;6.20;;;4.37;;
18286;SDS011;9269;50.838;12.094;2023-01-28T10:58:16;6.40;;;4.60;;
18286;SDS011;9269;50.838;12.094;2023-01-28T11:00:52;5.30;;;4.60;;
18286;SDS011;9269;50.838;12.094;2023-01-28T11:03:23;7.23;;;5.50;;
18286;SDS011;9269;50.838;12.094;2023-01-28T11:05:54;5.73;;;4.87;;
18286;SDS011;9269;50.838;12.094;2023-01-28T11:08:26;7.50;;;5.20;;
18286;SDS011;9269;50.838;12.094;2023-01-28T11:10:56;5.47;;;4.50;;
18286;SDS011;9269;50.838;12.094;2023-01-28T11:13:27;8.53;;;5.20;;
18286;SDS011;9269;50.838;12.094;2023-01-28T11:15:59;5.17;;;4.67;;
18286;SDS011;9269;50.838;12.094;2023-01-28T11:18:30;6.83;;;5.23;;
18286;SDS011;9269;50.838;12.094;2023-01-28T11:21:01;6.47;;;5.40;;
18286;SDS011;9269;50.838;12.094;2023-01-28T11:23:32;5.93;;;4.80;;
18286;SDS011;9269;50.838;12.094;2023-01-28T11:26:05;8.93;;;5.30;;
18286;SDS011;9269;50.838;12.094;2023-01-28T11:28:38;6.60;;;5.00;;
18286;SDS011;9269;50.838;12.094;2023-01-28T11:31:09;5.73;;;4.60;;
18286;SDS011;9269;50.838;12.094;2023-01-28T11:33:42;8.83;;;7.93;;
18286;SDS011;9269;50.838;12.094;2023-01-28T11:36:14;7.20;;;6.50;;
18286;SDS011;9269;50.838;12.094;2023-01-28T11:38:48;6.07;;;5.57;;
18286;SDS011;9269;50.838;12.094;2023-01-28T11:41:22;8.23;;;6.27;;
18286;SDS011;9269;50.838;12.094;2023-01-28T11:43:54;5.93;;;5.33;;
18286;SDS011;9269;50.838;12.094;2023-01-28T11:46:36;5.50;;;4.73;;
18286;SDS011;9269;50.838;12.094;2023-01-28T11:49:17;5.70;;;4.50;;
18286;SDS011;9269;50.838;12.094;2023-01-28T11:51:57;4.87;;;4.37;;
18286;SDS011;9269;50.838;12.094;2023-01-28T11:54:36;5.80;;;4.80;;
18286;SDS011;9269;50.838;12.094;2023-01-28T11:57:23;9.43;;;8.53;;
18286;SDS011;9269;50.838;12.094;2023-01-28T12:00:01;7.03;;;6.03;;
18286;SDS011;9269;50.838;12.094;2023-01-28T12:02:54;6.27;;;4.03;;
18286;SDS011;9269;50.838;12.094;2023-01-28T12:05:45;6.57;;;5.53;;
18286;SDS011;9269;50.838;12.094;2023-01-28T12:08:19;14.40;;;13.03;;
18286;SDS011;9269;50.838;12.094;2023-01-28T12:10:54;11.50;;;10.30;;
18286;SDS011;9269;50.838;12.094;2023-01-28T12:13:41;6.70;;;6.03;;
18286;SDS011;9269;50.838;12.094;2023-01-28T12:16:26;14.53;;;10.73;;
18286;SDS011;9269;50.838;12.094;2023-01-28T12:19:10;8.07;;;7.27;;
18286;SDS011;9269;50.838;12.094;2023-01-28T12:21:51;7.63;;;5.13;;
18286;SDS011;9269;50.838;12.094;2023-01-28T12:24:34;5.57;;;4.77;;
18286;SDS011;9269;50.838;12.094;2023-01-28T12:27:13;4.80;;;4.37;;
18286;SDS011;9269;50.838;12.094;2023-01-28T12:29:56;4.50;;;4.10;;
18286;SDS011;9269;50.838;12.094;2023-01-28T12:32:34;6.97;;;5.90;;
18286;SDS011;9269;50.838;12.094;2023-01-28T12:35:19;5.77;;;4.30;;
18286;SDS011;9269;50.838;12.094;2023-01-28T12:37:55;4.40;;;4.00;;
18286;SDS011;9269;50.838;12.094;2023-01-28T12:40:46;4.17;;;3.60;;
18286;SDS011;9269;50.838;12.094;2023-01-28T12:43:22;7.37;;;3.90;;
18286;SDS011;9269;50.838;12.094;2023-01-28T12:45:57;4.13;;;3.63;;
18286;SDS011;9269;50.838;12.094;2023-01-28T12:48:31;6.83;;;4.03;;
18286;SDS011;9269;50.838;12.094;2023-01-28T12:51:06;5.57;;;3.57;;
18286;SDS011;9269;50.838;12.094;2023-01-28T12:53:39;4.53;;;3.73;;
18286;SDS011;9269;50.838;12.094;2023-01-28T12:56:15;5.67;;;3.73;;
18286;SDS011;9269;50.838;12.094;2023-01-28T12:58:48;4.40;;;3.73;;
18286;SDS011;9269;50.838;12.094;2023-01-28T13:01:22;4.93;;;3.27;;
18286;SDS011;9269;50.838;12.094;2023-01-28T13:03:56;4.50;;;3.40;;
18286;SDS011;9269;50.838;12.094;2023-01-28T13:06:34;4.37;;;3.80;;
18286;SDS011;9269;50.838;12.094;2023-01-28T13:09:10;3.83;;;3.43;;
18286;SDS011;9269;50.838;12.094;2023-01-28T13:11:43;5.17;;;3.63;;
18286;SDS011;9269;50.838;12.094;2023-01-28T13:26:26;5.27;;;4.47;;
18286;SDS011;9269;50.838;12.094;2023-01-28T13:29:06;4.33;;;3.83;;
18286;SDS011;9269;50.838;12.094;2023-01-28T13:31:49;6.10;;;3.87;;
18286;SDS011;9269;50.838;12.094;2023-01-28T13:34:28;5.70;;;4.30;;
18286;SDS011;9269;50.838;12.094;2023-01-28T13:37:06;4.90;;;3.90;;
18286;SDS011;9269;50.838;12.094;2023-01-28T13:39:48;4.63;;;3.57;;
18286;SDS011;9269;50.838;12.094;2023-01-28T13:42:24;4.83;;;3.83;;
18286;SDS011;9269;50.838;12.094;2023-01-28T13:44:54;4.57;;;3.97;;
18286;SDS011;9269;50.838;12.094;2023-01-28T13:47:25;4.20;;;3.80;;
18286;SDS011;9269;50.838;12.094;2023-01-28T13:49:59;4.70;;;3.70;;
18286;SDS011;9269;50.838;12.094;2023-01-28T13:52:31;6.20;;;4.43;;
18286;SDS011;9269;50.838;12.094;2023-01-28T13:55:04;5.53;;;3.67;;
18286;SDS011;9269;50.838;12.094;2023-01-28T14:04:25;4.53;;;3.47;;
18286;SDS011;9269;50.838;12.094;2023-01-28T14:07:08;4.40;;;3.97;;
18286;SDS011;9269;50.838;12.094;2023-01-28T14:09:50;5.43;;;4.27;;
18286;SDS011;9269;50.838;12.094;2023-01-28T14:15:34;3.83;;;3.53;;
18286;SDS011;9269;50.838;12.094;2023-01-28T14:18:13;4.70;;;3.60;;
18286;SDS011;9269;50.838;12.094;2023-01-28T14:20:51;4.27;;;3.70;;
18286;SDS011;9269;50.838;12.094;2023-01-28T14:23:21;5.10;;;3.97;;
18286;SDS011;9269;50.838;12.094;2023-01-28T14:25:56;14.80;;;10.00;;
18286;SDS011;9269;50.838;12.094;2023-01-28T14:28:39;16.10;;;9.00;;
18286;SDS011;9269;50.838;12.094;2023-01-28T14:31:20;5.87;;;4.60;;
18286;SDS011;9269;50.838;12.094;2023-01-28T14:33:53;7.73;;;5.50;;
18286;SDS011;9269;50.838;12.094;2023-01-28T14:36:25;6.80;;;4.90;;
18286;SDS011;9269;50.838;12.094;2023-01-28T14:38:55;5.30;;;4.30;;
18286;SDS011;9269;50.838;12.094;2023-01-28T14:41:25;5.27;;;3.90;;
18286;SDS011;9269;50.838;12.094;2023-01-28T14:43:55;6.60;;;4.90;;
18286;SDS011;9269;50.838;12.094;2023-01-28T14:46:31;5.07;;;4.57;;
18286;SDS011;9269;50.838;12.094;2023-01-28T14:49:18;7.77;;;5.20;;
18286;SDS011;9269;50.838;12.094;2023-01-28T14:52:02;6.43;;;4.83;;
18286;SDS011;9269;50.838;12.094;2023-01-28T14:54:45;6.43;;;5.40;;
18286;SDS011;9269;50.838;12.094;2023-01-28T14:57:26;13.93;;;6.70;;
18286;SDS011;9269;50.838;12.094;2023-01-28T15:00:18;9.20;;;7.00;;
18286;SDS011;9269;50.838;12.094;2023-01-28T15:02:51;6.93;;;6.23;;
18286;SDS011;9269;50.838;12.094;2023-01-28T15:05:20;11.07;;;7.63;;
18286;SDS011;9269;50.838;12.094;2023-01-28T15:07:51;13.03;;;9.80;;
18286;SDS011;9269;50.838;12.094;2023-01-28T15:10:20;11.93;;;8.97;;
18286;SDS011;9269;50.838;12.094;2023-01-28T15:12:53;12.93;;;9.13;;
18286;SDS011;9269;50.838;12.094;2023-01-28T15:15:27;12.00;;;9.20;;
18286;SDS011;9269;50.838;12.094;2023-01-28T15:18:01;9.27;;;7.83;;
18286;SDS011;9269;50.838;12.094;2023-01-28T15:20:31;8.30;;;5.97;;
18286;SDS011;9269;50.838;12.094;2023-01-28T15:23:01;9.93;;;7.30;;
18286;SDS011;9269;50.838;12.094;2023-01-28T15:25:33;8.37;;;7.47;;
18286;SDS011;9269;50.838;12.094;2023-01-28T15:28:01;9.30;;;6.03;;
18286;SDS011;9269;50.838;12.094;2023-01-28T15:30:30;10.50;;;7.13;;
18286;SDS011;9269;50.838;12.094;2023-01-28T15:33:02;10.07;;;7.97;;
18286;SDS011;9269;50.838;12.094;2023-01-28T15:35:34;8.23;;;6.90;;
18286;SDS011;9269;50.838;12.094;2023-01-28T15:38:03;10.17;;;7.17;;
18286;SDS011;9269;50.838;12.094;2023-01-28T15:40:38;11.13;;;8.20;;
18286;SDS011;9269;50.838;12.094;2023-01-28T15:43:20;10.57;;;8.13;;
18286;SDS011;9269;50.838;12.094;2023-01-28T15:45:53;8.77;;;7.13;;
18286;SDS011;9269;50.838;12.094;2023-01-28T15:48:26;10.70;;;7.50;;
18286;SDS011;9269;50.838;12.094;2023-01-28T15:50:58;8.30;;;6.10;;
18286;SDS011;9269;50.838;12.094;2023-01-28T15:53:30;7.77;;;6.23;;
18286;SDS011;9269;50.838;12.094;2023-01-28T15:56:04;8.53;;;6.13;;
18286;SDS011;9269;50.838;12.094;2023-01-28T15:58:34;22.60;;;13.80;;
18286;SDS011;9269;50.838;12.094;2023-01-28T16:01:12;10.43;;;7.37;;
18286;SDS011;9269;50.838;12.094;2023-01-28T16:03:46;6.90;;;6.00;;
18286;SDS011;9269;50.838;12.094;2023-01-28T16:06:28;8.13;;;6.40;;